createdAt,value
2023-02-09T00:01:27.456Z,21.60
2023-02-09T00:03:54.044Z,21.90
2023-02-09T00:06:23.293Z,21.33
2023-02-09T00:08:53.064Z,19.60
2023-02-09T00:12:02.004Z,22.37
2023-02-09T00:14:28.514Z,17.97
2023-02-09T00:16:55.139Z,19.47
2023-02-09T00:19:24.588Z,20.27
2023-02-09T00:21:54.001Z,19.40
2023-02-09T00:24:22.874Z,20.50
2023-02-09T00:26:49.722Z,19.80
2023-02-09T00:29:17.346Z,19.90
2023-02-09T00:31:43.939Z,21.13
2023-02-09T00:34:10.781Z,21.40
2023-02-09T00:36:37.214Z,20.97
2023-02-09T00:39:04.164Z,21.73
2023-02-09T00:41:49.800Z,19.83
2023-02-09T00:44:16.370Z,20.77
2023-02-09T00:46:42.867Z,20.43
2023-02-09T00:49:09.372Z,20.13
2023-02-09T00:51:35.864Z,19.73
2023-02-09T00:54:02.718Z,19.10
2023-02-09T00:56:29.216Z,20.30
2023-02-09T00:58:55.781Z,20.07
2023-02-09T01:01:22.321Z,19.57
2023-02-09T01:03:48.962Z,19.83
2023-02-09T01:06:15.464Z,19.27
2023-02-09T01:08:41.936Z,18.47
2023-02-09T01:11:14.124Z,20.20
2023-02-09T01:13:41.623Z,20.60
2023-02-09T01:16:09.628Z,17.47
2023-02-09T01:18:36.321Z,19.07
2023-02-09T01:21:03.357Z,19.57
2023-02-09T01:23:31.438Z,20.83
2023-02-09T01:26:05.351Z,21.03
2023-02-09T01:28:31.853Z,21.00
2023-02-09T01:30:58.531Z,18.93
2023-02-09T01:33:29.311Z,18.70
2023-02-09T01:36:05.422Z,19.33
2023-02-09T01:38:31.891Z,19.37
2023-02-09T01:40:58.380Z,19.63
2023-02-09T01:43:27.167Z,19.63
2023-02-09T01:45:57.527Z,18.23
2023-02-09T01:51:01.081Z,19.53
2023-02-09T01:53:30.688Z,19.07
2023-02-09T01:56:06.529Z,20.00
2023-02-09T01:58:34.064Z,18.63
2023-02-09T02:01:01.320Z,18.73
2023-02-09T02:03:31.951Z,20.13
2023-02-09T02:06:08.446Z,18.60
2023-02-09T02:08:46.862Z,18.23
2023-02-09T02:11:13.640Z,17.77
2023-02-09T02:13:40.331Z,18.40
2023-02-09T02:16:37.453Z,17.83
2023-02-09T02:19:25.088Z,16.83
2023-02-09T02:22:15.618Z,16.80
2023-02-09T02:25:18.520Z,17.30
2023-02-09T02:27:54.010Z,17.57
2023-02-09T02:30:39.052Z,16.23
2023-02-09T02:33:05.556Z,16.53
2023-02-09T02:36:05.659Z,16.00
2023-02-09T02:38:54.390Z,17.17
2023-02-09T02:41:50.952Z,16.17
2023-02-09T02:44:18.971Z,15.83
2023-02-09T02:46:51.147Z,17.27
2023-02-09T02:49:40.476Z,18.60
2023-02-09T02:52:09.786Z,17.33
2023-02-09T02:54:42.990Z,18.33
2023-02-09T02:57:15.139Z,18.10
2023-02-09T02:59:52.104Z,16.70
2023-02-09T03:02:23.584Z,17.17
2023-02-09T03:04:54.084Z,16.87
2023-02-09T03:07:20.788Z,18.93
2023-02-09T03:09:56.144Z,16.13
2023-02-09T03:12:53.608Z,16.60
2023-02-09T03:15:33.744Z,16.67
2023-02-09T03:18:23.458Z,17.03
2023-02-09T03:21:09.910Z,17.13
2023-02-09T03:23:59.383Z,16.73
2023-02-09T03:26:34.840Z,17.47
2023-02-09T03:29:03.371Z,17.83
2023-02-09T03:31:33.322Z,17.73
2023-02-09T03:34:03.296Z,16.30
2023-02-09T03:36:37.296Z,17.73
2023-02-09T03:39:05.574Z,16.63
2023-02-09T03:41:35.021Z,16.73
2023-02-09T03:44:20.086Z,15.73
2023-02-09T03:46:46.537Z,15.80
2023-02-09T03:49:16.094Z,17.20
2023-02-09T03:51:42.954Z,16.53
2023-02-09T03:54:09.512Z,17.07
2023-02-09T03:56:37.554Z,14.97
2023-02-09T03:59:06.942Z,14.07
2023-02-09T04:01:37.126Z,14.23
2023-02-09T04:04:07.531Z,14.73
2023-02-09T04:06:36.985Z,13.10
2023-02-09T04:09:06.390Z,14.57
2023-02-09T04:11:35.639Z,14.23
2023-02-09T04:14:02.308Z,12.97
2023-02-09T04:16:28.978Z,13.30
2023-02-09T04:18:57.691Z,14.00
2023-02-09T04:21:24.450Z,14.87
2023-02-09T04:23:50.894Z,13.20
2023-02-09T04:26:17.490Z,13.20
2023-02-09T04:28:44.166Z,13.83
2023-02-09T04:31:10.954Z,13.00
2023-02-09T04:33:37.910Z,12.90
2023-02-09T04:36:06.346Z,13.40
2023-02-09T04:38:32.963Z,12.13
2023-02-09T04:41:01.579Z,11.73
2023-02-09T04:43:28.687Z,12.60
2023-02-09T04:45:55.516Z,12.40
2023-02-09T04:48:25.155Z,12.27
2023-02-09T04:50:52.684Z,11.40
2023-02-09T04:53:19.741Z,13.60
2023-02-09T04:55:47.561Z,13.87
2023-02-09T04:58:38.042Z,12.30
2023-02-09T05:01:08.393Z,13.20
2023-02-09T05:03:34.980Z,12.47
2023-02-09T05:06:04.513Z,13.53
2023-02-09T05:08:31.950Z,13.23
2023-02-09T05:10:58.899Z,13.20
2023-02-09T05:13:26.789Z,14.10
2023-02-09T05:15:54.172Z,12.43
2023-02-09T05:18:21.487Z,12.80
2023-02-09T05:20:48.877Z,12.40
2023-02-09T05:23:15.854Z,12.23
2023-02-09T05:25:42.430Z,12.17
2023-02-09T05:28:12.292Z,12.67
2023-02-09T05:30:41.888Z,12.03
2023-02-09T05:33:11.792Z,11.67
2023-02-09T05:35:41.255Z,11.60
2023-02-09T05:38:10.467Z,12.60
2023-02-09T05:40:39.257Z,11.97
2023-02-09T05:43:05.713Z,12.10
2023-02-09T05:45:32.218Z,11.63
2023-02-09T05:47:58.712Z,10.60
2023-02-09T05:50:25.265Z,11.23
2023-02-09T05:52:51.714Z,12.60
2023-02-09T05:55:18.305Z,11.83
2023-02-09T05:57:44.832Z,11.90
2023-02-09T06:00:12.750Z,11.13
2023-02-09T06:02:42.251Z,10.70
2023-02-09T06:05:09.876Z,11.07
2023-02-09T06:07:46.392Z,11.57
2023-02-09T06:10:12.899Z,11.30
2023-02-09T06:12:42.294Z,9.83
2023-02-09T06:15:11.960Z,10.63
2023-02-09T06:17:42.026Z,10.20
2023-02-09T06:20:13.036Z,8.60
2023-02-09T06:22:39.834Z,9.53
2023-02-09T06:25:09.071Z,9.97
2023-02-09T06:27:39.716Z,10.03
2023-02-09T06:32:47.032Z,9.50
2023-02-09T06:35:13.518Z,9.67
2023-02-09T06:37:40.804Z,9.30
2023-02-09T06:40:11.756Z,9.13
2023-02-09T06:42:45.440Z,9.20
2023-02-09T06:45:17.033Z,9.40
2023-02-09T06:47:44.918Z,9.00
2023-02-09T06:50:12.997Z,10.07
2023-02-09T06:52:43.133Z,8.43
2023-02-09T06:55:10.393Z,8.83
2023-02-09T06:57:39.252Z,9.17
2023-02-09T07:00:14.170Z,8.37
2023-02-09T07:02:42.934Z,8.30
2023-02-09T07:05:13.377Z,7.17
2023-02-09T07:07:44.345Z,7.97
2023-02-09T07:10:13.478Z,7.93
2023-02-09T07:12:45.902Z,7.83
2023-02-09T07:15:13.826Z,7.70
2023-02-09T07:17:43.009Z,7.17
2023-02-09T07:20:13.062Z,8.17
2023-02-09T07:22:41.058Z,7.43
2023-02-09T07:25:14.689Z,8.20
2023-02-09T07:27:44.979Z,8.37
2023-02-09T07:30:12.428Z,7.20
2023-02-09T07:32:42.436Z,7.17
2023-02-09T07:35:12.002Z,6.97
2023-02-09T07:37:43.139Z,8.23
2023-02-09T07:40:10.237Z,7.20
2023-02-09T07:42:39.004Z,6.80
2023-02-09T07:45:05.897Z,6.60
2023-02-09T07:47:34.069Z,8.00
2023-02-09T07:50:00.574Z,6.70
2023-02-09T07:52:27.329Z,6.73
2023-02-09T07:54:54.116Z,7.07
2023-02-09T07:57:20.650Z,7.70
2023-02-09T07:59:47.099Z,5.70
2023-02-09T08:02:20.763Z,5.87
2023-02-09T08:04:47.344Z,6.17
2023-02-09T08:07:13.867Z,5.67
2023-02-09T08:09:40.435Z,7.20
2023-02-09T08:12:12.194Z,6.67
2023-02-09T08:14:48.057Z,5.50
2023-02-09T08:17:21.057Z,5.23
2023-02-09T08:19:52.076Z,6.73
2023-02-09T08:22:19.222Z,6.20
2023-02-09T08:24:45.729Z,7.43
2023-02-09T08:27:12.469Z,6.53
2023-02-09T08:29:42.042Z,6.20
2023-02-09T08:32:15.860Z,7.20
2023-02-09T08:34:45.973Z,8.17
2023-02-09T08:37:12.666Z,7.13
2023-02-09T08:39:40.390Z,7.73
2023-02-09T08:42:09.732Z,8.77
2023-02-09T08:44:43.743Z,8.13
2023-02-09T08:47:10.302Z,9.17
2023-02-09T08:49:39.065Z,8.77
2023-02-09T08:52:05.674Z,9.43
2023-02-09T08:54:32.194Z,9.23
2023-02-09T08:57:15.370Z,8.47
2023-02-09T08:59:41.930Z,8.57
2023-02-09T09:02:11.181Z,8.23
2023-02-09T09:04:40.525Z,8.47
2023-02-09T09:07:34.879Z,8.60
2023-02-09T09:10:01.449Z,9.67
2023-02-09T09:12:30.062Z,8.30
2023-02-09T09:14:56.900Z,8.33
2023-02-09T09:17:23.359Z,7.87
2023-02-09T09:19:52.468Z,7.63
2023-02-09T09:22:18.919Z,7.93
2023-02-09T09:24:45.391Z,8.17
2023-02-09T09:27:11.833Z,7.77
2023-02-09T09:29:41.530Z,7.70
2023-02-09T09:32:13.875Z,7.27
2023-02-09T09:34:41.269Z,7.33
2023-02-09T09:37:12.124Z,6.67
2023-02-09T09:39:41.537Z,7.13
2023-02-09T09:42:23.202Z,6.70
2023-02-09T09:44:49.818Z,6.72
2023-02-09T09:47:21.843Z,6.75
2023-02-09T09:49:48.860Z,5.85
2023-02-09T09:52:25.669Z,6.30
2023-02-09T09:54:52.577Z,5.97
2023-02-09T09:57:24.253Z,6.25
2023-02-09T09:59:51.935Z,6.80
2023-02-09T10:02:44.624Z,6.70
2023-02-09T10:05:14.031Z,7.20
2023-02-09T10:07:44.669Z,6.38
2023-02-09T10:10:18.532Z,5.63
2023-02-09T10:12:51.309Z,5.90
2023-02-09T10:15:25.209Z,5.35
2023-02-09T10:17:52.392Z,6.00
2023-02-09T10:20:44.029Z,5.90
2023-02-09T10:23:23.358Z,6.63
2023-02-09T10:25:58.462Z,5.78
2023-02-09T10:28:29.409Z,5.00
2023-02-09T10:30:59.374Z,5.25
2023-02-09T10:33:28.719Z,5.40
2023-02-09T10:36:03.260Z,4.90
2023-02-09T10:38:33.466Z,5.25
2023-02-09T10:41:01.717Z,5.50
2023-02-09T10:43:31.617Z,3.97
2023-02-09T10:46:18.279Z,4.90
2023-02-09T10:48:48.512Z,5.00
2023-02-09T10:51:29.074Z,5.22
2023-02-09T10:53:56.036Z,4.72
2023-02-09T10:56:26.060Z,3.67
2023-02-09T10:59:00.146Z,3.65
2023-02-09T11:01:42.297Z,4.72
2023-02-09T11:04:23.945Z,4.70
2023-02-09T11:06:58.442Z,4.35
2023-02-09T11:09:33.540Z,3.30
2023-02-09T11:12:01.725Z,3.72
2023-02-09T11:14:29.439Z,4.18
2023-02-09T11:17:23.905Z,3.10
2023-02-09T11:20:15.461Z,4.18
2023-02-09T11:23:02.790Z,5.18
2023-02-09T11:25:41.161Z,4.00
2023-02-09T11:28:29.617Z,4.80
2023-02-09T11:31:39.020Z,3.25
2023-02-09T11:34:33.564Z,3.05
2023-02-09T11:37:21.951Z,3.50
2023-02-09T11:40:03.724Z,2.85
2023-02-09T11:42:45.981Z,3.80
2023-02-09T11:45:44.744Z,3.47
2023-02-09T11:48:20.818Z,3.10
2023-02-09T11:51:09.718Z,3.97
2023-02-09T11:53:49.920Z,3.28
2023-02-09T11:56:20.282Z,3.00
2023-02-09T11:58:54.110Z,3.05
2023-02-09T12:01:33.448Z,3.40
2023-02-09T12:04:18.081Z,3.63
2023-02-09T12:07:12.954Z,3.15
2023-02-09T12:09:55.898Z,2.97
2023-02-09T12:12:31.089Z,3.17
2023-02-09T12:15:14.266Z,3.72
2023-02-09T12:18:02.631Z,3.28
2023-02-09T12:20:47.138Z,3.13
2023-02-09T12:23:46.684Z,3.55
2023-02-09T12:26:13.391Z,4.28
2023-02-09T12:28:42.488Z,3.17
2023-02-09T12:31:13.037Z,3.03
2023-02-09T12:34:00.749Z,3.03
2023-02-09T12:36:33.445Z,2.42
2023-02-09T12:39:23.784Z,3.08
2023-02-09T12:41:50.967Z,2.63
2023-02-09T12:44:18.543Z,2.00
2023-02-09T12:46:45.605Z,2.05
2023-02-09T12:49:12.437Z,2.92
2023-02-09T12:51:53.976Z,2.35
2023-02-09T12:54:32.726Z,2.40
2023-02-09T12:57:20.852Z,2.67
2023-02-09T12:59:53.522Z,2.03
2023-02-09T13:02:25.287Z,2.58
2023-02-09T13:05:03.030Z,2.40
2023-02-09T13:07:32.562Z,2.70
2023-02-09T13:10:20.214Z,2.20
2023-02-09T13:12:54.982Z,2.03
2023-02-09T13:15:21.551Z,2.90
2023-02-09T13:18:17.664Z,2.42
2023-02-09T13:21:05.685Z,2.70
2023-02-09T13:23:47.762Z,2.30
2023-02-09T13:26:26.932Z,2.42
2023-02-09T13:29:19.343Z,2.58
2023-02-09T13:32:03.099Z,2.50
2023-02-09T13:34:45.508Z,2.22
2023-02-09T13:37:34.979Z,2.83
2023-02-09T13:40:13.437Z,2.20
2023-02-09T13:43:05.677Z,2.85
2023-02-09T13:45:32.188Z,2.58
2023-02-09T13:48:00.611Z,2.85
2023-02-09T13:50:31.792Z,2.58
2023-02-09T13:53:10.039Z,2.22
2023-02-09T13:55:40.144Z,2.95
2023-02-09T13:58:13.890Z,2.42
2023-02-09T14:01:08.044Z,3.17
2023-02-09T14:03:58.484Z,2.50
2023-02-09T14:06:47.098Z,3.30
2023-02-09T14:09:28.013Z,3.05
2023-02-09T14:12:03.148Z,2.42
2023-02-09T14:14:54.161Z,3.08
2023-02-09T14:17:27.562Z,2.60
2023-02-09T14:19:56.152Z,2.88
2023-02-09T14:22:34.254Z,3.05
2023-02-09T14:25:05.451Z,2.30
2023-02-09T14:27:33.912Z,3.05
2023-02-09T14:30:01.313Z,2.40
2023-02-09T14:32:35.329Z,2.65
2023-02-09T14:35:22.758Z,2.67
2023-02-09T14:37:52.165Z,2.35
2023-02-09T14:40:24.369Z,2.63
2023-02-09T14:43:11.582Z,2.90
2023-02-09T14:45:44.728Z,2.33
2023-02-09T14:48:31.203Z,2.95
2023-02-09T14:51:00.175Z,2.97
2023-02-09T14:53:30.100Z,2.20
2023-02-09T14:55:58.362Z,3.03
2023-02-09T14:58:29.560Z,2.55
2023-02-09T15:00:59.166Z,2.65
2023-02-09T15:03:25.706Z,2.72
2023-02-09T15:05:57.505Z,3.13
2023-02-09T15:08:26.838Z,2.97
2023-02-09T15:11:02.712Z,3.20
2023-02-09T15:13:31.239Z,3.15
2023-02-09T15:15:57.781Z,3.22
2023-02-09T15:18:26.328Z,3.20
2023-02-09T15:20:53.318Z,2.85
2023-02-09T15:23:19.819Z,2.65
2023-02-09T15:25:46.703Z,3.33
2023-02-09T15:28:27.987Z,3.88
2023-02-09T15:30:56.165Z,3.45
2023-02-09T15:33:22.786Z,3.40
2023-02-09T15:35:50.064Z,3.63
2023-02-09T15:38:18.485Z,3.28
2023-02-09T15:41:06.671Z,4.40
2023-02-09T15:43:52.392Z,4.25
2023-02-09T15:46:22.207Z,3.50
2023-02-09T15:48:48.873Z,3.88
2023-02-09T15:51:16.764Z,4.20
2023-02-09T15:53:48.411Z,3.80
2023-02-09T15:56:15.751Z,4.47
2023-02-09T15:58:45.383Z,3.72
2023-02-09T16:01:17.518Z,4.07
2023-02-09T16:03:44.823Z,5.50
2023-02-09T16:06:24.814Z,5.28
2023-02-09T16:08:53.514Z,5.10
2023-02-09T16:11:27.240Z,5.22
2023-02-09T16:13:56.376Z,5.18
2023-02-09T16:16:24.799Z,4.72
2023-02-09T16:18:51.478Z,5.50
2023-02-09T16:21:22.208Z,4.25
2023-02-09T16:23:48.816Z,4.38
2023-02-09T16:26:15.331Z,4.93
2023-02-09T16:28:41.874Z,5.70
2023-02-09T16:31:11.543Z,5.47
2023-02-09T16:33:41.217Z,5.22
2023-02-09T16:36:15.313Z,5.75
2023-02-09T16:38:42.033Z,5.68
2023-02-09T16:41:33.879Z,5.45
2023-02-09T16:44:01.581Z,5.03
2023-02-09T16:46:30.538Z,5.78
2023-02-09T16:48:58.620Z,5.43
2023-02-09T16:51:25.187Z,5.45
2023-02-09T16:53:52.504Z,5.75
2023-02-09T16:56:22.388Z,7.88
2023-02-09T16:58:49.041Z,7.60
2023-02-09T17:01:21.481Z,9.15
2023-02-09T17:03:54.434Z,6.32
2023-02-09T17:06:23.969Z,6.70
2023-02-09T17:08:56.390Z,6.25
2023-02-09T17:11:25.164Z,5.63
2023-02-09T17:13:51.969Z,5.45
2023-02-09T17:16:22.135Z,5.90
2023-02-09T17:18:55.275Z,5.68
2023-02-09T17:21:28.958Z,5.72
2023-02-09T17:23:57.440Z,5.63
2023-02-09T17:26:24.598Z,6.90
2023-02-09T17:28:51.613Z,7.28
2023-02-09T17:31:23.697Z,6.97
2023-02-09T17:34:00.797Z,7.45
2023-02-09T17:36:29.472Z,7.78
2023-02-09T17:38:58.195Z,8.55
2023-02-09T17:41:57.191Z,8.32
2023-02-09T17:44:44.517Z,7.85
2023-02-09T17:47:20.102Z,8.05
2023-02-09T17:49:47.108Z,7.68
2023-02-09T17:52:18.587Z,8.63
2023-02-09T17:54:45.775Z,8.67
2023-02-09T17:57:16.910Z,9.60
2023-02-09T17:59:43.706Z,9.20
2023-02-09T18:02:16.217Z,9.07
2023-02-09T18:04:43.568Z,10.47
2023-02-09T18:07:20.095Z,10.98
2023-02-09T18:09:46.714Z,11.30
2023-02-09T18:12:20.577Z,9.67
2023-02-09T18:14:47.233Z,11.00
2023-02-09T18:17:13.761Z,8.80
2023-02-09T18:19:43.300Z,8.47
2023-02-09T18:22:14.216Z,8.67
2023-02-09T18:24:44.136Z,8.83
2023-02-09T18:27:16.405Z,8.97
2023-02-09T18:29:45.807Z,9.43
2023-02-09T18:32:17.146Z,8.90
2023-02-09T18:34:43.884Z,9.33
2023-02-09T18:37:11.008Z,9.10
2023-02-09T18:39:45.841Z,9.53
2023-02-09T18:42:14.394Z,9.53
2023-02-09T18:44:43.238Z,9.13
2023-02-09T18:47:12.715Z,8.67
2023-02-09T18:49:39.227Z,9.70
2023-02-09T18:52:06.300Z,9.07
2023-02-09T18:54:33.560Z,9.53
2023-02-09T18:57:00.378Z,9.17
2023-02-09T18:59:31.673Z,8.70
2023-02-09T19:01:59.657Z,9.67
2023-02-09T19:04:27.052Z,8.77
2023-02-09T19:06:53.859Z,10.67
2023-02-09T19:09:20.629Z,9.17
2023-02-09T19:11:50.255Z,8.50
2023-02-09T19:14:35.383Z,9.93
2023-02-09T19:17:02.408Z,10.00
2023-02-09T19:20:31.258Z,9.00
2023-02-09T19:23:17.052Z,8.10
2023-02-09T19:25:47.318Z,9.07
2023-02-09T19:28:17.403Z,9.17
2023-02-09T19:30:46.862Z,8.80
2023-02-09T19:33:17.543Z,9.50
2023-02-09T19:35:45.183Z,8.77
2023-02-09T19:38:14.635Z,9.43
2023-02-09T19:40:45.110Z,9.17
2023-02-09T19:43:16.222Z,9.67
2023-02-09T19:45:44.039Z,11.10
2023-02-09T19:48:14.098Z,9.80
2023-02-09T19:50:40.637Z,9.90
2023-02-09T19:53:07.423Z,10.30
2023-02-09T19:55:34.457Z,9.87
2023-02-09T19:58:03.996Z,10.83
2023-02-09T20:00:32.164Z,9.87
2023-02-09T20:02:58.984Z,9.27
2023-02-09T20:05:25.552Z,10.57
2023-02-09T20:07:53.672Z,12.60
2023-02-09T20:10:21.985Z,10.17
2023-02-09T20:12:48.540Z,10.73
2023-02-09T20:15:17.274Z,10.53
2023-02-09T20:20:17.336Z,9.73
2023-02-09T20:22:50.734Z,11.17
2023-02-09T20:25:17.982Z,12.60
2023-02-09T20:27:49.707Z,14.27
2023-02-09T20:30:16.827Z,12.93
2023-02-09T20:32:46.487Z,12.80
2023-02-09T20:35:14.610Z,12.57
2023-02-09T20:37:41.085Z,12.67
2023-02-09T20:40:13.425Z,11.00
2023-02-09T20:42:58.760Z,11.10
2023-02-09T20:45:47.273Z,10.40
2023-02-09T20:48:17.619Z,9.83
2023-02-09T20:50:45.690Z,10.33
2023-02-09T20:53:16.482Z,9.70
2023-02-09T20:55:44.481Z,10.13
2023-02-09T20:58:17.739Z,11.00
2023-02-09T21:00:47.176Z,11.07
2023-02-09T21:03:17.928Z,10.10
2023-02-09T21:05:45.467Z,11.20
2023-02-09T21:08:12.333Z,11.73
2023-02-09T21:10:39.513Z,11.43
2023-02-09T21:13:07.680Z,11.63
2023-02-09T21:15:39.265Z,11.13
2023-02-09T21:18:06.744Z,10.43
2023-02-09T21:20:34.789Z,10.90
2023-02-09T21:23:01.428Z,11.03
2023-02-09T21:25:28.160Z,11.43
2023-02-09T21:27:59.715Z,11.13
2023-02-09T21:30:27.037Z,10.83
2023-02-09T21:32:54.944Z,13.00
2023-02-09T21:35:22.286Z,13.67
2023-02-09T21:37:48.872Z,12.30
2023-02-09T21:40:20.376Z,12.33
2023-02-09T21:42:49.447Z,11.10
2023-02-09T21:45:21.666Z,12.27
2023-02-09T21:47:48.208Z,12.03
2023-02-09T21:50:17.840Z,12.57
2023-02-09T21:52:49.700Z,12.53
2023-02-09T21:55:21.397Z,12.20
2023-02-09T21:57:47.961Z,13.30
2023-02-09T22:00:15.537Z,13.33
2023-02-09T22:02:42.003Z,13.23
2023-02-09T22:05:08.750Z,13.90
2023-02-09T22:07:35.851Z,15.83
2023-02-09T22:10:02.949Z,15.47
2023-02-09T22:12:29.795Z,15.13
2023-02-09T22:14:56.524Z,15.73
2023-02-09T22:17:23.334Z,14.77
2023-02-09T22:19:49.766Z,14.50
2023-02-09T22:22:18.722Z,14.53
2023-02-09T22:24:47.307Z,12.93
2023-02-09T22:27:13.855Z,14.70
2023-02-09T22:29:40.431Z,16.63
2023-02-09T22:32:06.887Z,15.90
2023-02-09T22:34:33.581Z,17.13
2023-02-09T22:37:00.112Z,16.50
2023-02-09T22:39:26.585Z,16.47
2023-02-09T22:41:57.909Z,15.87
2023-02-09T22:44:26.457Z,15.00
2023-02-09T22:46:53.182Z,15.60
2023-02-09T22:49:20.835Z,15.57
2023-02-09T22:51:51.508Z,14.40
2023-02-09T22:54:21.797Z,15.27
2023-02-09T22:56:52.456Z,14.13
2023-02-09T22:59:23.262Z,14.90
2023-02-09T23:01:49.693Z,14.20
2023-02-09T23:04:16.330Z,14.20
2023-02-09T23:06:42.895Z,13.37
2023-02-09T23:09:09.422Z,12.50
2023-02-09T23:11:36.230Z,12.67
2023-02-09T23:14:09.701Z,13.00
2023-02-09T23:16:38.324Z,12.27
2023-02-09T23:19:08.847Z,11.37
2023-02-09T23:21:39.090Z,12.30
2023-02-09T23:24:06.185Z,12.67
2023-02-09T23:26:33.335Z,13.00
2023-02-09T23:29:03.616Z,13.47
2023-02-09T23:31:30.465Z,14.67
2023-02-09T23:33:57.024Z,14.37
2023-02-09T23:36:26.547Z,12.60
2023-02-09T23:38:55.375Z,14.27
2023-02-09T23:41:25.154Z,13.60
2023-02-09T23:43:53.313Z,12.27
2023-02-09T23:46:22.709Z,13.43
2023-02-09T23:48:54.591Z,11.33
2023-02-09T23:51:28.404Z,11.93
2023-02-09T23:53:56.592Z,12.37
2023-02-09T23:56:23.755Z,14.07
2023-02-09T23:58:53.029Z,14.27
